| time (UTC) | temp C | wind direction | speed KPH | gust KPH | rain 1hr cm | rain 24hr cm | rain mn cm | humidity % | barometer mb |
| 20260509213020 | 13 | 161 | 3.2 | 6.4 | 0.00 | 1.37 | 1.22 | 88 | 1009.2 |
| 20260509212507 | 13 | 150 | 1.6 | 4.8 | 0.00 | 1.37 | 1.22 | 88 | 1009.3 |
| 20260509212007 | 13 | 182 | 1.6 | 4.8 | 0.00 | 1.37 | 1.22 | 88 | 1009.3 |
| 20260509211529 | 13 | 226 | 1.6 | 6.4 | 0.00 | 1.37 | 1.22 | 88 | 1009.2 |
| 20260509211009 | 13 | 209 | 1.6 | 6.4 | 0.00 | 1.37 | 1.22 | 88 | 1009.2 |
| 20260509210510 | 13 | 154 | 1.6 | 6.4 | 0.00 | 1.37 | 1.22 | 88 | 1009.2 |
| 20260509210031 | 13 | 205 | 4.8 | 6.4 | 0.00 | 1.37 | 1.22 | 89 | 1009.2 |
| 20260509205509 | 13 | 212 | 1.6 | 4.8 | 0.03 | 1.37 | 1.22 | 90 | 1009.2 |
| 20260509205010 | 13 | 162 | 0.0 | 8.0 | 0.03 | 1.37 | 1.22 | 90 | 1009.3 |
| 20260509204526 | 13 | 150 | 4.8 | 8.0 | 0.05 | 1.37 | 1.22 | 89 | 1009.4 |
| 20260509204010 | 13 | 150 | 3.2 | 4.8 | 0.05 | 1.37 | 1.22 | 90 | 1009.4 |
| 20260509203511 | 13 | 158 | 1.6 | 4.8 | 0.05 | 1.37 | 1.22 | 90 | 1009.4 |
| 20260509203026 | 13 | 158 | 1.6 | 4.8 | 0.08 | 1.40 | 1.22 | 91 | 1009.4 |
| 20260509202507 | 13 | 180 | 1.6 | 4.8 | 0.08 | 1.40 | 1.22 | 91 | 1009.5 |
| 20260509202016 | 13 | 142 | 3.2 | 4.8 | 0.08 | 1.40 | 1.22 | 91 | 1009.5 |
| 20260509201520 | 13 | 219 | 1.6 | 3.2 | 0.08 | 1.40 | 1.22 | 91 | 1009.6 |
| 20260509201013 | 12 | 150 | 0.0 | 3.2 | 0.08 | 1.40 | 1.22 | 91 | 1009.7 |
| 20260509200510 | 12 | 150 | 1.6 | 3.2 | 0.08 | 1.40 | 1.22 | 91 | 1009.8 |
| 20260509200025 | 12 | 215 | 1.6 | 4.8 | 0.08 | 1.40 | 1.22 | 91 | 1010.0 |
| 20260509195516 | 12 | 229 | 1.6 | 4.8 | 0.08 | 1.37 | 1.19 | 91 | 1010.0 |
| 20260509195012 | 12 | 213 | 1.6 | 4.8 | 0.08 | 1.40 | 1.19 | 91 | 1010.1 |
| 20260509194524 | 12 | 210 | 1.6 | 6.4 | 0.05 | 1.37 | 1.17 | 91 | 1010.1 |
| 20260509194014 | 12 | 201 | 1.6 | 8.0 | 0.05 | 1.37 | 1.17 | 90 | 1010.1 |
| 20260509193511 | 12 | 176 | 3.2 | 8.0 | 0.05 | 1.37 | 1.17 | 90 | 1010.1 |
| 20260509193028 | 12 | 221 | 3.2 | 8.0 | 0.05 | 1.32 | 1.14 | 90 | 1010.1 |
| 20260509192511 | 13 | 210 | 1.6 | 8.0 | 0.05 | 1.32 | 1.14 | 91 | 1010.2 |
| 20260509192011 | 13 | 203 | 4.8 | 8.0 | 0.05 | 1.32 | 1.14 | 90 | 1010.2 |
| 20260509191528 | 12 | 164 | 1.6 | 4.8 | 0.05 | 1.32 | 1.14 | 91 | 1010.2 |
| 20260509191011 | 12 | 158 | 3.2 | 4.8 | 0.08 | 1.32 | 1.14 | 91 | 1010.2 |
| 20260509190509 | 12 | 166 | 3.2 | 4.8 | 0.08 | 1.32 | 1.14 | 91 | 1010.3 |
| 20260509190022 | 12 | 167 | 3.2 | 6.4 | 0.08 | 1.32 | 1.14 | 91 | 1010.2 |
| 20260509185509 | 12 | 165 | 3.2 | 6.4 | 0.05 | 1.32 | 1.12 | 91 | 1010.2 |
| 20260509185011 | 12 | 176 | 3.2 | 6.4 | 0.08 | 1.32 | 1.12 | 91 | 1010.2 |
| 20260509184527 | 12 | 195 | 3.2 | 6.4 | 0.10 | 1.32 | 1.12 | 91 | 1010.2 |
| 20260509184014 | 12 | 161 | 4.8 | 6.4 | 0.10 | 1.32 | 1.12 | 92 | 1010.2 |
| 20260509183507 | 12 | 171 | 3.2 | 8.0 | 0.13 | 1.32 | 1.12 | 92 | 1010.2 |
| 20260509183027 | 11 | 188 | 3.2 | 8.0 | 0.10 | 1.30 | 1.09 | 92 | 1010.2 |
| 20260509182512 | 11 | 181 | 4.8 | 9.7 | 0.13 | 1.30 | 1.09 | 92 | 1010.3 |
| 20260509182010 | 11 | 168 | 4.8 | 9.7 | 0.15 | 1.30 | 1.09 | 92 | 1010.2 |
| 20260509181527 | 11 | 165 | 3.2 | 6.4 | 0.15 | 1.32 | 1.09 | 92 | 1010.3 |
| 20260509181011 | 11 | 168 | 4.8 | 8.0 | 0.15 | 1.30 | 1.07 | 92 | 1010.3 |
| 20260509180508 | 11 | 195 | 4.8 | 8.0 | 0.18 | 1.32 | 1.07 | 92 | 1010.3 |
| 20260509180029 | 11 | 165 | 4.8 | 8.0 | 0.20 | 1.32 | 1.07 | 92 | 1010.3 |
| 20260509175509 | 11 | 198 | 4.8 | 9.7 | 0.23 | 1.32 | 1.07 | 92 | 1010.3 |
| 20260509175011 | 11 | 170 | 4.8 | 11.3 | 0.23 | 1.32 | 1.04 | 92 | 1010.3 |
| 20260509174522 | 11 | 158 | 4.8 | 11.3 | 0.23 | 1.30 | 1.02 | 92 | 1010.3 |
| 20260509174011 | 11 | 143 | 6.4 | 11.3 | 0.25 | 1.30 | 1.02 | 92 | 1010.3 |
| 20260509173503 | 11 | 184 | 3.2 | 8.0 | 0.23 | 1.27 | 0.99 | 92 | 1010.3 |
| 20260509173008 | 11 | 152 | 4.8 | 8.0 | 0.25 | 1.27 | 0.99 | 92 | 1010.4 |
| 20260509172504 | 11 | 198 | 3.2 | 6.4 | 0.25 | 1.24 | 0.97 | 92 | 1010.4 |
| 20260509172005 | 11 | 150 | 1.6 | 3.2 | 0.25 | 1.22 | 0.94 | 92 | 1010.4 |
| 20260509171521 | 11 | 210 | 1.6 | 3.2 | 0.25 | 1.22 | 0.94 | 92 | 1010.5 |
| 20260509171010 | 11 | 214 | 0.0 | 3.2 | 0.25 | 1.19 | 0.91 | 92 | 1010.4 |
| 20260509170512 | 11 | 211 | 0.0 | 4.8 | 0.23 | 1.17 | 0.89 | 92 | 1010.4 |
| 20260509170027 | 11 | 211 | 1.6 | 4.8 | 0.20 | 1.14 | 0.86 | 92 | 1010.4 |
| 20260509165508 | 11 | 158 | 1.6 | 3.2 | 0.18 | 1.12 | 0.84 | 92 | 1010.5 |
| 20260509165008 | 11 | 163 | 1.6 | 4.8 | 0.15 | 1.09 | 0.81 | 92 | 1010.5 |
| 20260509164526 | 11 | 160 | 1.6 | 6.4 | 0.13 | 1.07 | 0.79 | 91 | 1010.5 |
| 20260509164003 | 11 | 181 | 1.6 | 6.4 | 0.10 | 1.04 | 0.76 | 92 | 1010.4 |
| 20260509163503 | 11 | 154 | 3.2 | 9.7 | 0.10 | 1.04 | 0.76 | 91 | 1010.4 |
| 20260509163008 | 11 | 145 | 6.4 | 9.7 | 0.10 | 1.02 | 0.74 | 91 | 1010.4 |
| 20260509162506 | 11 | 160 | 3.2 | 4.8 | 0.08 | 0.99 | 0.71 | 91 | 1010.4 |
| 20260509162006 | 11 | 154 | 1.6 | 3.2 | 0.05 | 0.97 | 0.69 | 91 | 1010.6 |
| 20260509161507 | 11 | 165 | 1.6 | 3.2 | 0.08 | 0.97 | 0.69 | 91 | 1010.7 |
| 20260509161003 | 11 | 169 | 1.6 | 6.4 | 0.08 | 0.94 | 0.66 | 91 | 1010.6 |
| 20260509160507 | 11 | 157 | 4.8 | 6.4 | 0.08 | 0.94 | 0.66 | 91 | 1010.6 |
| 20260509160026 | 11 | 169 | 3.2 | 6.4 | 0.10 | 0.94 | 0.66 | 92 | 1010.6 |
| 20260509155509 | 11 | 149 | 3.2 | 4.8 | 0.13 | 0.94 | 0.66 | 92 | 1010.7 |
| 20260509155008 | 11 | 150 | 1.6 | 4.8 | 0.13 | 0.94 | 0.66 | 91 | 1010.7 |
| 20260509154520 | 11 | 158 | 1.6 | 4.8 | 0.15 | 0.94 | 0.66 | 92 | 1010.8 |
| 20260509154010 | 11 | 151 | 1.6 | 4.8 | 0.18 | 0.94 | 0.66 | 92 | 1010.8 |
| 20260509153511 | 11 | 203 | 1.6 | 4.8 | 0.18 | 0.94 | 0.66 | 92 | 1010.9 |
| 20260509153024 | 11 | 174 | 1.6 | 3.2 | 0.18 | 0.91 | 0.64 | 92 | 1010.9 |
| 20260509152502 | 11 | 164 | 1.6 | 3.2 | 0.18 | 0.91 | 0.64 | 92 | 1011.0 |
| 20260509152006 | 10 | 160 | 3.2 | 3.2 | 0.20 | 0.91 | 0.64 | 92 | 1011.1 |
| 20260509151504 | 10 | 153 | 1.6 | 3.2 | 0.20 | 0.89 | 0.61 | 92 | 1011.1 |
| 20260509151004 | 10 | 148 | 1.6 | 3.2 | 0.18 | 0.86 | 0.58 | 92 | 1011.2 |
| 20260509150507 | 10 | 197 | 0.0 | 1.6 | 0.20 | 0.86 | 0.58 | 92 | 1011.2 |
| 20260509150016 | 10 | 169 | 0.0 | 1.6 | 0.20 | 0.84 | 0.56 | 92 | 1011.2 |
| 20260509145508 | 10 | 210 | 1.6 | 1.6 | 0.20 | 0.81 | 0.53 | 92 | 1011.2 |
| 20260509145008 | 10 | 207 | 1.6 | 1.6 | 0.20 | 0.81 | 0.53 | 92 | 1011.2 |
| 20260509144516 | 10 | 150 | 0.0 | 1.6 | 0.20 | 0.79 | 0.51 | 92 | 1011.2 |
| 20260509144012 | 10 | 150 | 0.0 | 1.6 | 0.18 | 0.76 | 0.48 | 92 | 1011.2 |
| 20260509143508 | 10 | 150 | 0.0 | 1.6 | 0.18 | 0.76 | 0.48 | 92 | 1011.2 |
| 20260509143019 | 10 | 149 | 0.0 | 1.6 | 0.15 | 0.74 | 0.46 | 93 | 1011.2 |
| 20260509142508 | 10 | 146 | 0.0 | 3.2 | 0.18 | 0.74 | 0.46 | 92 | 1011.3 |
| 20260509142011 | 10 | 146 | 1.6 | 3.2 | 0.15 | 0.71 | 0.43 | 92 | 1011.3 |
| 20260509141525 | 10 | 146 | 1.6 | 1.6 | 0.13 | 0.69 | 0.41 | 93 | 1011.3 |
| 20260509141007 | 10 | 165 | 0.0 | 0.0 | 0.13 | 0.69 | 0.41 | 93 | 1011.3 |
| 20260509140503 | 10 | 165 | 0.0 | 0.0 | 0.13 | 0.66 | 0.38 | 93 | 1011.4 |
| 20260509140006 | 10 | 165 | 0.0 | 0.0 | 0.10 | 0.64 | 0.36 | 93 | 1011.3 |
| 20260509135503 | 10 | 186 | 0.0 | 0.0 | 0.08 | 0.61 | 0.33 | 93 | 1011.4 |
| 20260509135007 | 10 | 186 | 0.0 | 0.0 | 0.08 | 0.61 | 0.33 | 93 | 1011.5 |
| 20260509134512 | 10 | 186 | 0.0 | 0.0 | 0.08 | 0.58 | 0.30 | 93 | 1011.4 |
| 20260509134012 | 10 | 186 | 0.0 | 0.0 | 0.08 | 0.58 | 0.30 | 93 | 1011.4 |
| 20260509133504 | 10 | 186 | 0.0 | 0.0 | 0.08 | 0.58 | 0.30 | 93 | 1011.4 |
| 20260509133015 | 10 | 186 | 0.0 | 0.0 | 0.08 | 0.58 | 0.30 | 93 | 1011.4 |
| 20260509132511 | 10 | 186 | 0.0 | 0.0 | 0.05 | 0.56 | 0.28 | 93 | 1011.4 |
| 20260509132009 | 10 | 186 | 0.0 | 0.0 | 0.05 | 0.56 | 0.28 | 93 | 1011.4 |
| 20260509131526 | 10 | 187 | 0.0 | 0.0 | 0.05 | 0.56 | 0.28 | 93 | 1011.5 |
| 20260509131009 | 10 | 187 | 0.0 | 0.0 | 0.05 | 0.56 | 0.28 | 93 | 1011.5 |
| 20260509130508 | 10 | 216 | 0.0 | 0.0 | 0.03 | 0.53 | 0.25 | 93 | 1011.5 |
| 20260509130028 | 10 | 237 | 0.0 | 0.0 | 0.03 | 0.53 | 0.25 | 93 | 1011.5 |
| 20260509125507 | 10 | 238 | 0.0 | 0.0 | 0.03 | 0.56 | 0.25 | 93 | 1011.5 |
| 20260509125011 | 10 | 237 | 0.0 | 0.0 | 0.03 | 0.56 | 0.25 | 93 | 1011.6 |
| 20260509124509 | 10 | 237 | 0.0 | 0.0 | 0.00 | 0.53 | 0.23 | 93 | 1011.6 |
| 20260509124004 | 10 | 245 | 0.0 | 0.0 | 0.00 | 0.53 | 0.23 | 93 | 1011.6 |
| 20260509123508 | 10 | 245 | 0.0 | 0.0 | 0.03 | 0.53 | 0.23 | 94 | 1011.5 |
| 20260509123011 | 10 | 245 | 0.0 | 0.0 | 0.03 | 0.53 | 0.23 | 93 | 1011.4 |
| 20260509122507 | 10 | 245 | 0.0 | 0.0 | 0.03 | 0.53 | 0.23 | 93 | 1011.4 |
| 20260509122008 | 10 | 245 | 0.0 | 0.0 | 0.03 | 0.53 | 0.23 | 93 | 1011.5 |
| 20260509121524 | 10 | 245 | 0.0 | 0.0 | 0.03 | 0.53 | 0.23 | 94 | 1011.4 |
| 20260509121009 | 9 | 245 | 0.0 | 0.0 | 0.03 | 0.53 | 0.23 | 94 | 1011.4 |
| 20260509120512 | 9 | 245 | 0.0 | 0.0 | 0.03 | 0.53 | 0.23 | 94 | 1011.4 |
| 20260509120022 | 9 | 245 | 0.0 | 0.0 | 0.03 | 0.53 | 0.23 | 94 | 1011.4 |
| 20260509115507 | 9 | 245 | 0.0 | 0.0 | 0.03 | 0.53 | 0.23 | 93 | 1011.3 |
| 20260509115009 | 9 | 245 | 0.0 | 0.0 | 0.03 | 0.53 | 0.23 | 94 | 1011.5 |
| 20260509114527 | 9 | 245 | 0.0 | 0.0 | 0.03 | 0.53 | 0.23 | 94 | 1011.5 |
| 20260509114009 | 9 | 245 | 0.0 | 0.0 | 0.03 | 0.53 | 0.23 | 94 | 1011.5 |
| 20260509113511 | 9 | 245 | 0.0 | 0.0 | 0.00 | 0.51 | 0.20 | 94 | 1011.5 |
| 20260509113029 | 9 | 245 | 0.0 | 0.0 | 0.00 | 0.51 | 0.20 | 94 | 1011.4 |
| 20260509112503 | 9 | 245 | 0.0 | 0.0 | 0.00 | 0.51 | 0.20 | 94 | 1011.4 |
| 20260509112007 | 9 | 245 | 0.0 | 0.0 | 0.00 | 0.51 | 0.20 | 94 | 1011.5 |
| 20260509111514 | 9 | 245 | 0.0 | 0.0 | 0.00 | 0.51 | 0.20 | 94 | 1011.4 |
| 20260509111009 | 9 | 245 | 0.0 | 1.6 | 0.00 | 0.51 | 0.20 | 94 | 1011.5 |
| 20260509110510 | 9 | 251 | 0.0 | 4.8 | 0.00 | 0.51 | 0.20 | 94 | 1011.6 |
| 20260509110019 | 9 | 271 | 0.0 | 4.8 | 0.00 | 0.51 | 0.20 | 94 | 1011.5 |
| 20260509105508 | 8 | 267 | 1.6 | 4.8 | 0.00 | 0.51 | 0.20 | 94 | 1011.6 |
| 20260509105010 | 8 | 260 | 0.0 | 3.2 | 0.00 | 0.51 | 0.20 | 94 | 1011.5 |
| 20260509104522 | 8 | 332 | 0.0 | 0.0 | 0.00 | 0.51 | 0.20 | 94 | 1011.2 |
| 20260509104010 | 8 | 332 | 0.0 | 0.0 | 0.00 | 0.51 | 0.20 | 94 | 1011.3 |
| 20260509103510 | 8 | 332 | 0.0 | 0.0 | 0.00 | 0.51 | 0.20 | 93 | 1011.3 |
| 20260509103025 | 8 | 332 | 0.0 | 0.0 | 0.00 | 0.51 | 0.20 | 93 | 1011.3 |
| 20260509102511 | 8 | 332 | 0.0 | 0.0 | 0.00 | 0.51 | 0.20 | 93 | 1011.3 |
| 20260509102013 | 8 | 332 | 0.0 | 0.0 | 0.00 | 0.51 | 0.20 | 93 | 1011.3 |
| 20260509101535 | 8 | 332 | 0.0 | 0.0 | 0.00 | 0.51 | 0.20 | 93 | 1011.2 |
| 20260509101012 | 8 | 332 | 0.0 | 0.0 | 0.00 | 0.51 | 0.20 | 93 | 1011.3 |
| 20260509100504 | 8 | 332 | 0.0 | 0.0 | 0.00 | 0.51 | 0.20 | 93 | 1011.3 |
| 20260509100022 | 8 | 332 | 0.0 | 0.0 | 0.00 | 0.51 | 0.20 | 93 | 1011.2 |
| 20260509095508 | 8 | 332 | 0.0 | 0.0 | 0.03 | 0.51 | 0.20 | 93 | 1011.3 |
| 20260509095007 | 8 | 332 | 0.0 | 0.0 | 0.03 | 0.51 | 0.20 | 93 | 1011.4 |
| 20260509094521 | 8 | 332 | 0.0 | 0.0 | 0.03 | 0.51 | 0.20 | 93 | 1011.6 |
| 20260509094010 | 8 | 332 | 0.0 | 0.0 | 0.03 | 0.51 | 0.20 | 93 | 1011.6 |
| 20260509093508 | 8 | 332 | 0.0 | 0.0 | 0.03 | 0.51 | 0.20 | 93 | 1011.6 |
| 20260509093025 | 8 | 332 | 0.0 | 0.0 | 0.03 | 0.51 | 0.20 | 93 | 1011.7 |
| 20260509092509 | 8 | 332 | 0.0 | 0.0 | 0.03 | 0.51 | 0.20 | 93 | 1011.7 |
| 20260509092013 | 8 | 332 | 0.0 | 0.0 | 0.03 | 0.51 | 0.20 | 93 | 1011.8 |
| 20260509091524 | 8 | 332 | 0.0 | 0.0 | 0.03 | 0.51 | 0.20 | 93 | 1011.7 |
| 20260509091008 | 8 | 332 | 0.0 | 0.0 | 0.03 | 0.51 | 0.20 | 93 | 1011.7 |
| 20260509090514 | 8 | 332 | 0.0 | 0.0 | 0.03 | 0.51 | 0.20 | 93 | 1011.6 |
| 20260509090028 | 8 | 332 | 0.0 | 0.0 | 0.03 | 0.51 | 0.20 | 93 | 1011.7 |
| 20260509085508 | 8 | 332 | 0.0 | 0.0 | 0.00 | 0.48 | 0.18 | 93 | 1011.8 |
| 20260509085010 | 8 | 332 | 0.0 | 0.0 | 0.00 | 0.48 | 0.18 | 93 | 1012.0 |
| 20260509084519 | 8 | 332 | 0.0 | 0.0 | 0.00 | 0.48 | 0.18 | 93 | 1011.8 |
| 20260509084008 | 8 | 332 | 0.0 | 0.0 | 0.00 | 0.48 | 0.18 | 93 | 1011.7 |
| 20260509083510 | 8 | 331 | 0.0 | 0.0 | 0.00 | 0.48 | 0.18 | 93 | 1011.7 |
| 20260509083023 | 8 | 332 | 0.0 | 0.0 | 0.00 | 0.48 | 0.18 | 93 | 1011.5 |
| 20260509082507 | 8 | 331 | 0.0 | 0.0 | 0.00 | 0.48 | 0.18 | 93 | 1011.5 |
| 20260509082009 | 8 | 332 | 0.0 | 0.0 | 0.00 | 0.48 | 0.18 | 93 | 1011.6 |
| 20260509081531 | 8 | 332 | 0.0 | 0.0 | 0.03 | 0.48 | 0.18 | 93 | 1011.7 |
| 20260509081010 | 8 | 332 | 0.0 | 0.0 | 0.03 | 0.48 | 0.18 | 93 | 1011.6 |
| 20260509080511 | 8 | 332 | 0.0 | 0.0 | 0.05 | 0.48 | 0.18 | 93 | 1011.7 |
| 20260509080026 | 8 | 332 | 0.0 | 0.0 | 0.08 | 0.48 | 0.18 | 93 | 1011.7 |
| 20260509075509 | 8 | 332 | 0.0 | 0.0 | 0.08 | 0.48 | 0.18 | 93 | 1011.6 |
| 20260509075014 | 8 | 332 | 0.0 | 0.0 | 0.08 | 0.48 | 0.18 | 93 | 1011.6 |
| 20260509074526 | 8 | 332 | 0.0 | 0.0 | 0.10 | 0.48 | 0.18 | 93 | 1011.8 |
| 20260509074013 | 8 | 332 | 0.0 | 0.0 | 0.10 | 0.48 | 0.18 | 93 | 1011.8 |
| 20260509073511 | 8 | 332 | 0.0 | 0.0 | 0.10 | 0.48 | 0.18 | 93 | 1012.0 |
| 20260509073017 | 9 | 331 | 0.0 | 0.0 | 0.10 | 0.48 | 0.18 | 93 | 1012.0 |
| 20260509072507 | 8 | 332 | 0.0 | 0.0 | 0.13 | 0.48 | 0.18 | 93 | 1012.0 |
| 20260509072010 | 8 | 332 | 0.0 | 0.0 | 0.15 | 0.48 | 0.18 | 93 | 1012.3 |
| 20260509071522 | 9 | 332 | 0.0 | 0.0 | 0.13 | 0.46 | 0.15 | 93 | 1012.4 |
| 20260509071007 | 9 | 332 | 0.0 | 0.0 | 0.13 | 0.46 | 0.15 | 93 | 1012.3 |
| 20260509070509 | 9 | 332 | 0.0 | 0.0 | 0.10 | 0.43 | 0.13 | 93 | 1012.1 |
| 20260509070027 | 9 | 332 | 0.0 | 0.0 | 0.08 | 0.41 | 0.10 | 93 | 1012.3 |
| 20260509065510 | 9 | 332 | 0.0 | 0.0 | 0.08 | 0.41 | 0.10 | 93 | 1012.4 |
| 20260509065008 | 9 | 332 | 0.0 | 0.0 | 0.08 | 0.41 | 0.10 | 93 | 1012.5 |
| 20260509064528 | 9 | 331 | 0.0 | 0.0 | 0.05 | 0.38 | 0.08 | 93 | 1012.6 |
| 20260509064010 | 9 | 331 | 0.0 | 0.0 | 0.05 | 0.38 | 0.08 | 93 | 1012.6 |
| 20260509063509 | 9 | 332 | 0.0 | 0.0 | 0.05 | 0.38 | 0.08 | 93 | 1012.6 |
| 20260509063026 | 9 | 331 | 0.0 | 0.0 | 0.05 | 0.38 | 0.08 | 93 | 1012.8 |
| 20260509062511 | 9 | 332 | 0.0 | 0.0 | 0.05 | 0.36 | 0.05 | 93 | 1013.0 |
| 20260509062016 | 9 | 332 | 0.0 | 0.0 | 0.03 | 0.33 | 0.03 | 93 | 1013.0 |
| 20260509061530 | 9 | 331 | 0.0 | 0.0 | 0.03 | 0.33 | 0.03 | 93 | 1013.0 |
| 20260509061011 | 9 | 332 | 0.0 | 0.0 | 0.03 | 0.33 | 0.03 | 93 | 1013.0 |
| 20260509060509 | 9 | 332 | 0.0 | 0.0 | 0.03 | 0.33 | 0.03 | 93 | 1013.0 |
| 20260509060023 | 9 | 332 | 0.0 | 0.0 | 0.03 | 0.33 | 0.03 | 93 | 1013.0 |
| 20260509055508 | 9 | 332 | 0.0 | 0.0 | 0.03 | 0.33 | 0.03 | 93 | 1013.0 |
| 20260509055013 | 9 | 332 | 0.0 | 0.0 | 0.03 | 0.33 | 0.03 | 93 | 1013.0 |
| 20260509054525 | 9 | 331 | 0.0 | 0.0 | 0.03 | 0.33 | 0.03 | 93 | 1013.0 |
| 20260509054011 | 9 | 332 | 0.0 | 0.0 | 0.03 | 0.33 | 0.03 | 93 | 1013.0 |
| 20260509053507 | 9 | 331 | 0.0 | 0.0 | 0.03 | 0.33 | 0.03 | 93 | 1013.1 |
| 20260509053014 | 9 | 332 | 0.0 | 0.0 | 0.03 | 0.33 | 0.03 | 93 | 1013.2 |
| 20260509052506 | 9 | 331 | 0.0 | 0.0 | 0.00 | 0.30 | 0.00 | 93 | 1013.3 |
| 20260509052008 | 9 | 332 | 0.0 | 0.0 | 0.00 | 0.30 | 0.00 | 93 | 1013.3 |
| 20260509051518 | 9 | 332 | 0.0 | 0.0 | 0.00 | 0.30 | 0.00 | 93 | 1013.4 |
| 20260509051010 | 9 | 332 | 0.0 | 0.0 | 0.00 | 0.30 | 0.00 | 93 | 1013.5 |
| 20260509050504 | 9 | 332 | 0.0 | 0.0 | 0.00 | 0.30 | 0.00 | 93 | 1013.4 |
| 20260509050005 | 9 | 332 | 0.0 | 0.0 | 0.00 | 0.30 | 0.00 | 93 | 1013.3 |
| 20260509045505 | 9 | 331 | 0.0 | 0.0 | 0.00 | 0.30 | 0.00 | 93 | 1013.2 |
| 20260509045003 | 9 | 332 | 0.0 | 0.0 | 0.00 | 0.30 | 0.00 | 93 | 1013.0 |
| 20260509044505 | 9 | 332 | 0.0 | 0.0 | 0.03 | 0.30 | 0.00 | 93 | 1013.0 |
| 20260509044003 | 9 | 332 | 0.0 | 0.0 | 0.03 | 0.30 | 0.00 | 93 | 1012.9 |
| 20260509043503 | 9 | 332 | 0.0 | 0.0 | 0.03 | 0.30 | 0.00 | 93 | 1012.8 |
| 20260509043009 | 9 | 332 | 0.0 | 0.0 | 0.03 | 0.30 | 0.00 | 92 | 1012.7 |
| 20260509042505 | 9 | 332 | 0.0 | 0.0 | 0.03 | 0.30 | 0.00 | 92 | 1012.5 |
| 20260509042010 | 9 | 332 | 0.0 | 0.0 | 0.03 | 0.30 | 0.00 | 92 | 1012.5 |
| 20260509041514 | 9 | 331 | 0.0 | 0.0 | 0.03 | 0.30 | 0.00 | 92 | 1012.6 |
| 20260509041010 | 9 | 331 | 0.0 | 0.0 | 0.03 | 0.30 | 0.00 | 92 | 1012.5 |
| 20260509040511 | 9 | 332 | 0.0 | 0.0 | 0.03 | 0.30 | 0.00 | 92 | 1012.6 |
| 20260509040020 | 9 | 332 | 0.0 | 1.6 | 0.03 | 0.30 | 0.00 | 92 | 1012.8 |
| 20260509035515 | 9 | 332 | 0.0 | 1.6 | 0.03 | 0.30 | 0.30 | 92 | 1012.9 |
| 20260509035015 | 9 | 332 | 0.0 | 1.6 | 0.03 | 0.30 | 0.30 | 92 | 1012.9 |
| 20260509034519 | 9 | 331 | 0.0 | 1.6 | 0.00 | 0.28 | 0.28 | 92 | 1013.0 |
| 20260509034004 | 9 | 331 | 0.0 | 1.6 | 0.03 | 0.28 | 0.28 | 92 | 1013.1 |
| 20260509033503 | 9 | 331 | 0.0 | 1.6 | 0.03 | 0.30 | 0.28 | 92 | 1013.1 |
| 20260509033005 | 9 | 331 | 0.0 | 1.6 | 0.03 | 0.30 | 0.28 | 92 | 1013.1 |
| 20260509032513 | 9 | 331 | 0.0 | 0.0 | 0.03 | 0.33 | 0.28 | 92 | 1013.2 |
| 20260509032012 | 9 | 331 | 0.0 | 1.6 | 0.03 | 0.36 | 0.28 | 92 | 1013.3 |
| 20260509031514 | 9 | 331 | 0.0 | 1.6 | 0.03 | 0.36 | 0.28 | 92 | 1013.4 |
| 20260509031007 | 9 | 331 | 0.0 | 1.6 | 0.03 | 0.36 | 0.28 | 92 | 1013.2 |
| 20260509030507 | 9 | 331 | 0.0 | 1.6 | 0.03 | 0.36 | 0.28 | 92 | 1013.3 |
| 20260509030020 | 9 | 331 | 0.0 | 0.0 | 0.03 | 0.36 | 0.28 | 92 | 1013.3 |
| 20260509025511 | 9 | 331 | 0.0 | 1.6 | 0.03 | 0.38 | 0.28 | 92 | 1013.2 |
| 20260509025008 | 9 | 331 | 0.0 | 1.6 | 0.03 | 0.41 | 0.28 | 92 | 1013.2 |
| 20260509024520 | 9 | 331 | 0.0 | 1.6 | 0.03 | 0.43 | 0.28 | 92 | 1013.1 |
| 20260509024008 | 9 | 331 | 0.0 | 1.6 | 0.00 | 0.43 | 0.25 | 92 | 1013.2 |
| 20260509023509 | 9 | 331 | 0.0 | 1.6 | 0.00 | 0.43 | 0.25 | 92 | 1013.1 |
| 20260509023023 | 9 | 331 | 0.0 | 0.0 | 0.00 | 0.43 | 0.25 | 92 | 1013.1 |
| 20260509022503 | 9 | 331 | 0.0 | 1.6 | 0.00 | 0.43 | 0.25 | 92 | 1013.3 |
| 20260509022004 | 9 | 331 | 0.0 | 1.6 | 0.00 | 0.43 | 0.25 | 92 | 1013.1 |
| 20260509021508 | 9 | 331 | 0.0 | 0.0 | 0.00 | 0.43 | 0.25 | 92 | 1013.3 |
| 20260509021008 | 9 | 331 | 0.0 | 0.0 | 0.00 | 0.46 | 0.25 | 92 | 1013.3 |
| 20260509020509 | 9 | 331 | 0.0 | 0.0 | 0.00 | 0.46 | 0.25 | 92 | 1013.2 |
| 20260509020010 | 9 | 331 | 0.0 | 1.6 | 0.00 | 0.46 | 0.25 | 92 | 1013.1 |
| 20260509015510 | 9 | 331 | 0.0 | 1.6 | 0.00 | 0.48 | 0.25 | 92 | 1013.0 |
| 20260509015008 | 9 | 331 | 0.0 | 1.6 | 0.00 | 0.51 | 0.25 | 92 | 1013.0 |
| 20260509014515 | 9 | 331 | 0.0 | 1.6 | 0.00 | 0.53 | 0.25 | 92 | 1013.0 |
| 20260509014007 | 9 | 331 | 0.0 | 1.6 | 0.00 | 0.53 | 0.25 | 92 | 1012.9 |
| 20260509013508 | 9 | 331 | 0.0 | 1.6 | 0.00 | 0.53 | 0.25 | 92 | 1012.9 |
| 20260509013023 | 9 | 331 | 0.0 | 0.0 | 0.00 | 0.53 | 0.25 | 92 | 1012.9 |
| 20260509012509 | 9 | 331 | 0.0 | 0.0 | 0.00 | 0.53 | 0.25 | 91 | 1012.8 |
| 20260509012008 | 9 | 331 | 0.0 | 0.0 | 0.00 | 0.53 | 0.25 | 91 | 1012.7 |
| 20260509011523 | 9 | 331 | 0.0 | 0.0 | 0.00 | 0.53 | 0.25 | 91 | 1012.6 |
| 20260509011010 | 9 | 331 | 0.0 | 0.0 | 0.00 | 0.53 | 0.25 | 91 | 1012.6 |
| 20260509010504 | 9 | 331 | 0.0 | 0.0 | 0.00 | 0.53 | 0.25 | 91 | 1012.6 |
| 20260509010011 | 9 | 331 | 0.0 | 0.0 | 0.00 | 0.53 | 0.25 | 91 | 1012.5 |
| 20260509005505 | 9 | 331 | 0.0 | 0.0 | 0.00 | 0.53 | 0.25 | 91 | 1012.4 |
| 20260509005007 | 9 | 331 | 0.0 | 0.0 | 0.00 | 0.53 | 0.25 | 91 | 1012.5 |
| 20260509004512 | 9 | 331 | 0.0 | 0.0 | 0.00 | 0.53 | 0.25 | 91 | 1012.5 |
| 20260509004010 | 9 | 331 | 0.0 | 0.0 | 0.00 | 0.53 | 0.25 | 91 | 1012.5 |
| 20260509003508 | 10 | 331 | 0.0 | 0.0 | 0.00 | 0.53 | 0.25 | 91 | 1012.4 |
| 20260509003020 | 10 | 331 | 0.0 | 0.0 | 0.00 | 0.53 | 0.25 | 90 | 1012.3 |
| 20260509002511 | 10 | 331 | 0.0 | 0.0 | 0.00 | 0.53 | 0.25 | 90 | 1012.3 |
| 20260509002012 | 10 | 331 | 0.0 | 0.0 | 0.00 | 0.53 | 0.25 | 91 | 1012.2 |
| 20260509001526 | 10 | 331 | 0.0 | 0.0 | 0.00 | 0.53 | 0.25 | 91 | 1012.3 |
| 20260509001010 | 10 | 331 | 0.0 | 0.0 | 0.00 | 0.53 | 0.25 | 90 | 1012.3 |
| 20260509000507 | 10 | 331 | 0.0 | 0.0 | 0.00 | 0.53 | 0.25 | 90 | 1012.2 |
| 20260509000024 | 10 | 331 | 0.0 | 0.0 | 0.00 | 0.53 | 0.25 | 90 | 1012.1 |
| 20260508235511 | 10 | 331 | 0.0 | 0.0 | 0.00 | 0.53 | 0.25 | 90 | 1012.2 |
| 20260508235004 | 10 | 331 | 0.0 | 0.0 | 0.00 | 0.53 | 0.25 | 90 | 1012.2 |
| 20260508234529 | 10 | 331 | 0.0 | 0.0 | 0.00 | 0.53 | 0.25 | 90 | 1012.0 |
| 20260508234006 | 10 | 334 | 0.0 | 0.0 | 0.00 | 0.53 | 0.25 | 90 | 1011.9 |
| 20260508233506 | 10 | 334 | 0.0 | 0.0 | 0.03 | 0.53 | 0.25 | 90 | 1011.8 |
| 20260508233016 | 10 | 334 | 0.0 | 0.0 | 0.03 | 0.53 | 0.25 | 90 | 1011.9 |
| 20260508232507 | 10 | 334 | 0.0 | 1.6 | 0.05 | 0.53 | 0.25 | 90 | 1011.6 |
| 20260508232010 | 10 | 334 | 0.0 | 1.6 | 0.05 | 0.53 | 0.25 | 90 | 1011.7 |
| 20260508231520 | 10 | 334 | 0.0 | 1.6 | 0.08 | 0.53 | 0.25 | 90 | 1011.8 |
| 20260508231007 | 10 | 261 | 0.0 | 0.0 | 0.10 | 0.53 | 0.25 | 90 | 1011.8 |
| 20260508230510 | 10 | 253 | 0.0 | 0.0 | 0.10 | 0.53 | 0.25 | 89 | 1011.7 |
| 20260508230025 | 10 | 253 | 0.0 | 0.0 | 0.10 | 0.53 | 0.25 | 89 | 1011.8 |
| 20260508225511 | 10 | 253 | 0.0 | 0.0 | 0.10 | 0.53 | 0.25 | 89 | 1011.9 |
| 20260508225012 | 10 | 253 | 0.0 | 0.0 | 0.10 | 0.53 | 0.25 | 88 | 1012.0 |
| 20260508224534 | 10 | 250 | 0.0 | 1.6 | 0.10 | 0.53 | 0.25 | 87 | 1012.0 |
| 20260508224011 | 11 | 249 | 0.0 | 1.6 | 0.10 | 0.53 | 0.25 | 87 | 1012.0 |
| 20260508223507 | 11 | 249 | 0.0 | 1.6 | 0.08 | 0.51 | 0.23 | 86 | 1012.1 |
| 20260508223011 | 11 | 311 | 0.0 | 1.6 | 0.08 | 0.51 | 0.23 | 85 | 1012.1 |
| 20260508222506 | 11 | 343 | 0.0 | 1.6 | 0.05 | 0.48 | 0.20 | 84 | 1012.0 |
| 20260508222008 | 12 | 319 | 0.0 | 0.0 | 0.05 | 0.48 | 0.20 | 83 | 1012.0 |
| 20260508221517 | 12 | 319 | 0.0 | 0.0 | 0.03 | 0.46 | 0.18 | 81 | 1012.0 |
| 20260508221007 | 12 | 319 | 0.0 | 0.0 | 0.00 | 0.43 | 0.15 | 80 | 1012.0 |
| 20260508220508 | 12 | 319 | 0.0 | 1.6 | 0.00 | 0.43 | 0.15 | 80 | 1011.8 |
| 20260508220027 | 13 | 319 | 0.0 | 1.6 | 0.00 | 0.43 | 0.15 | 80 | 1011.5 |
| 20260508215508 | 13 | 283 | 0.0 | 1.6 | 0.00 | 0.43 | 0.15 | 79 | 1011.6 |
| 20260508215011 | 13 | 250 | 1.6 | 1.6 | 0.00 | 0.43 | 0.15 | 76 | 1011.3 |
| 20260508214548 | 13 | 248 | 0.0 | 3.2 | 0.00 | 0.43 | 0.15 | 73 | 1011.1 |
| 20260508214013 | 13 | 248 | 0.0 | 3.2 | 0.00 | 0.43 | 0.15 | 71 | 1011.1 |
| 20260508213506 | 13 | 144 | 0.0 | 1.6 | 0.00 | 0.43 | 0.15 | 70 | 1011.1 |